»·PEaware :: N434EP KIFP-KBUR

N434EP :: KIFP-KBUR

FLIGHT INFORMATION

Flight Status: Arrived
Operator: Privately registered:
United States
More flights under this callsign
Pilot: Drew H. (3199)
Aircraft: Unknown
(PIPA)
More flights by this aircraft type
Origin: KIFP Laughlin/Bullhead Intl
United States
Destination: KBUR Bob Hope-Burbank
United States
More flights between these airports :: More routes between these airports
Route: HEC PMD
File this flight plan on PilotEdge
Remarks:
Altitude:
(Current/Filed)
10,500ft
Speed:
(Current/Filed)
190kts
Departed: 29-Jun-18 03:24 PM
Arrived: 29-Jun-18 04:33 PM
Distance/Time
Traveled:
196nm/1:09
Distance/Time
To Go:
Arrived

Flight Plot

Page will automatically refresh every two minutes.

Flight plan parsing failed; only flown route is shown


Map Options




Map Legend


Flown Route
Filed Route
Departure Airport
Arrival Airport
Navaid (VOR, NDB)
Fix

Horizontal Profiles

Position Reports

Time Latitude Longitude Heading Altitude Ground
Speed
29-Jun-18 15:09 35.158657 -114.556241 263 704ft 0kts
29-Jun-18 15:10 35.158657 -114.556241 263 704ft 0kts
29-Jun-18 15:11 35.158657 -114.556241 263 704ft 0kts
29-Jun-18 15:12 35.158657 -114.556241 263 704ft 0kts
29-Jun-18 15:13 35.158657 -114.556241 263 704ft 0kts
29-Jun-18 15:14 35.158657 -114.556241 263 704ft 0kts
29-Jun-18 15:15 35.158657 -114.556241 263 704ft 0kts
29-Jun-18 15:16 35.158657 -114.556241 263 704ft 0kts
29-Jun-18 15:17 35.158657 -114.556250 263 704ft 1kts
29-Jun-18 15:18 35.159527 -114.558155 294 704ft 9kts
29-Jun-18 15:19 35.164255 -114.558673 355 704ft 21kts
29-Jun-18 15:20 35.166077 -114.558905 303 704ft 0kts
29-Jun-18 15:21 35.166121 -114.558999 295 704ft 0kts
29-Jun-18 15:22 35.165765 -114.560162 177 704ft 0kts
29-Jun-18 15:23 35.165765 -114.560162 177 704ft 0kts
29-Jun-18 15:24 35.147916 -114.559349 182 1394ft 98kts
29-Jun-18 15:25 35.128444 -114.572517 259 2563ft 93kts
29-Jun-18 15:26 35.124723 -114.606530 261 3615ft 110kts
29-Jun-18 15:27 35.121540 -114.642357 258 5048ft 105kts
29-Jun-18 15:28 35.118227 -114.679541 260 6321ft 108kts
29-Jun-18 15:29 35.116407 -114.716165 261 7539ft 110kts
29-Jun-18 15:30 35.114067 -114.753502 260 8742ft 112kts
29-Jun-18 15:31 35.113030 -114.791725 253 9843ft 115kts
29-Jun-18 15:32 35.105395 -114.833513 251 10578ft 151kts
29-Jun-18 15:33 35.095203 -114.892075 253 10493ft 189kts
29-Jun-18 15:34 35.083266 -114.955423 253 10494ft 192kts
29-Jun-18 15:35 35.071380 -115.019414 253 10527ft 195kts
29-Jun-18 15:36 35.059184 -115.085144 254 10530ft 201kts
29-Jun-18 15:37 35.046635 -115.152668 255 10534ft 207kts
29-Jun-18 15:38 35.033780 -115.221858 257 10537ft 210kts
29-Jun-18 15:39 35.020865 -115.291586 258 10537ft 210kts
29-Jun-18 15:40 35.008122 -115.359756 260 10537ft 201kts
29-Jun-18 15:41 34.995869 -115.425563 259 10547ft 195kts
29-Jun-18 15:42 34.983839 -115.489398 259 10584ft 192kts
29-Jun-18 15:43 34.971989 -115.552802 259 10584ft 192kts
29-Jun-18 15:44 34.960152 -115.616007 259 10604ft 191kts
29-Jun-18 15:45 34.952423 -115.657787 258 10692ft 190kts
29-Jun-18 15:46 34.940985 -115.718245 258 10689ft 192kts
29-Jun-18 15:47 34.928950 -115.781909 257 10667ft 190kts
29-Jun-18 15:48 34.917137 -115.844325 256 10682ft 188kts
29-Jun-18 15:49 34.905049 -115.906855 256 10624ft 191kts
29-Jun-18 15:50 34.893223 -115.968256 256 10658ft 188kts
29-Jun-18 15:51 34.881270 -116.031057 256 10705ft 193kts
29-Jun-18 15:52 34.869286 -116.096079 257 10641ft 198kts
29-Jun-18 15:53 34.857912 -116.161361 257 10675ft 197kts
29-Jun-18 15:54 34.846262 -116.226793 257 10636ft 199kts
29-Jun-18 15:55 34.836045 -116.292729 260 10661ft 197kts
29-Jun-18 15:56 34.825706 -116.358997 258 10596ft 198kts
29-Jun-18 15:57 34.813754 -116.424415 256 10582ft 198kts
29-Jun-18 15:58 34.801271 -116.489519 258 10581ft 197kts
29-Jun-18 15:59 34.791491 -116.555091 261 10581ft 197kts
29-Jun-18 16:00 34.783326 -116.621098 262 10581ft 197kts
29-Jun-18 16:01 34.776259 -116.684524 262 10582ft 197kts
29-Jun-18 16:02 34.769276 -116.750717 262 10582ft 197kts
29-Jun-18 16:03 34.762473 -116.816934 262 10582ft 197kts
29-Jun-18 16:04 34.755718 -116.883392 262 10582ft 197kts
29-Jun-18 16:05 34.748992 -116.949481 263 10601ft 196kts
29-Jun-18 16:06 34.742292 -117.015364 264 10623ft 196kts
29-Jun-18 16:07 34.735568 -117.081319 264 10647ft 197kts
29-Jun-18 16:08 34.728800 -117.147593 264 10668ft 198kts
29-Jun-18 16:09 34.721923 -117.214860 264 10681ft 203kts
29-Jun-18 16:10 34.714679 -117.284670 264 10527ft 212kts
29-Jun-18 16:11 34.707353 -117.355283 264 10500ft 210kts
29-Jun-18 16:12 34.700008 -117.425575 264 10500ft 209kts
29-Jun-18 16:13 34.692642 -117.495692 264 10500ft 209kts
29-Jun-18 16:14 34.685236 -117.565759 264 10500ft 209kts
29-Jun-18 16:15 34.677798 -117.635796 264 10496ft 209kts
29-Jun-18 16:16 34.670486 -117.703690 264 10484ft 206kts
29-Jun-18 16:17 34.663163 -117.772070 265 10475ft 203kts
29-Jun-18 16:18 34.655817 -117.840200 265 10467ft 203kts
29-Jun-18 16:19 34.648444 -117.908152 265 10476ft 202kts
29-Jun-18 16:20 34.641054 -117.975854 265 10486ft 202kts
29-Jun-18 16:21 34.633663 -118.043222 264 10494ft 202kts
29-Jun-18 16:22 34.598802 -118.094873 226 10498ft 206kts
29-Jun-18 16:23 34.558792 -118.143386 226 10018ft 202kts
29-Jun-18 16:24 34.518966 -118.191035 226 9375ft 200kts
29-Jun-18 16:25 34.479779 -118.237799 226 8728ft 197kts
29-Jun-18 16:26 34.441282 -118.284399 227 8522ft 196kts
29-Jun-18 16:27 34.403676 -118.331023 226 8226ft 195kts
29-Jun-18 16:28 34.355087 -118.365150 207 6501ft 211kts
29-Jun-18 16:29 34.309544 -118.386150 174 4244ft 148kts
29-Jun-18 16:30 34.271421 -118.377234 164 3035ft 137kts
29-Jun-18 16:31 34.238202 -118.367638 168 1857ft 102kts
29-Jun-18 16:32 34.216258 -118.361528 168 940ft 71kts
29-Jun-18 16:33 34.202990 -118.358199 250 780ft 12kts
29-Jun-18 16:34 34.201031 -118.358503 167 780ft 15kts
29-Jun-18 16:35 34.201119 -118.359336 43 780ft 9kts
29-Jun-18 16:36 34.201829 -118.359421 258 780ft 0kts
29-Jun-18 16:37 34.201829 -118.359421 258 780ft 0kts
29-Jun-18 16:38 34.201829 -118.359421 258 780ft 0kts
29-Jun-18 16:39 34.201829 -118.359421 258 780ft 0kts
29-Jun-18 16:40 34.201829 -118.359421 258 780ft 0kts
29-Jun-18 16:41 34.201829 -118.359421 258 780ft 0kts
29-Jun-18 16:42 34.201829 -118.359421 258 780ft 0kts
29-Jun-18 16:43 34.201829 -118.359421 258 780ft 0kts
29-Jun-18 16:44 34.201829 -118.359421 258 780ft 0kts
29-Jun-18 16:45 34.201829 -118.359421 258 780ft 0kts
29-Jun-18 16:46 34.201829 -118.359421 258 780ft 0kts
29-Jun-18 16:47 34.201829 -118.359421 258 780ft 0kts

Navigation Log

Ident Type
Flight plan parsing failed, navigation log unavailable